Mobile, Alabama
Current Conditions -  °F | °C
As of 2:53 PM on Saturday 22 Nov 2014 (Local Time) from KBFM Reporting Station
Overcast Overcast  
Wind Chill: 64°   Ceiling: 2000
Heat Index: 64°   Visibility: 10mi
Dew Point: 57°   Wind: 9mph
Humidity: 78%   Direction: 90°E
Pressure: 30.12"   Gusts: NA
Location:  30.69°N, 88.05°W
Report Text: KBFM 222053Z 09008KT 10SM OVC020 18/14 A3012 RMK AO2 SLP199 T01780139 56031
Loading
Personal Weather Stations






























Interactive Weather Map New forecast layout! Learn more

10-Day Weather Forecast

Advertisements
Track Severe Weather on mobile